DLH579 FAOR-EDDM
Flight info
| Callsign | DLH579 |
|---|---|
| Flight time | N/A |
| Altitude | 37000 |
| Route | VASUR3A VASUR UQ41 EVIPI DCT ETMIT UM214 OKLAP/N0500F360 UM214 ANOTO/N0491F380 UM214 RAPOL UA607 BUNLU/N0486F400 UA607 DIR UB730 DJA UA605 BARKA/N0482F410 UG362 EBA UP161 TUC UM725 SIRVI/N0479F400 UG727 NIBEL DCT BETOT DCT SUMIR DCT NAXAV DCT SOTOV/N0468F240 T101 BETOS BETOS1B |
| Aircraft | A359/H-SDE2E3GHIJ3J4J5LM1ORWXY/LB1D1 |
Departure
| Time | 2026-05-04 09:04 |
|---|---|
| Airport | O.R. Tambo International Airport (FAOR) |
Arrival
| Time | N/A |
|---|---|
| Airport | Munich Airport (EDDM) |
| Time | Latitude | Longitude | Altitude | Speed | Heading |
|---|---|---|---|---|---|
| 2026-05-04 08:20 | -26.12904 | 28.23400 | 5527 ft | 0 kts | 187° |
| 2026-05-04 08:53 | -26.12903 | 28.23400 | 5527 ft | 1 kts | 187° |
| 2026-05-04 08:54 | -26.12845 | 28.23355 | 5529 ft | 0 kts | 96° |
| 2026-05-04 09:01 | -26.14204 | 28.23370 | 5550 ft | 26 kts | 195° |
| 2026-05-04 09:01 | -26.14372 | 28.23319 | 5551 ft | 24 kts | 195° |
| 2026-05-04 09:01 | -26.14532 | 28.23286 | 5555 ft | 22 kts | 175° |
| 2026-05-04 09:01 | -26.14605 | 28.23402 | 5555 ft | 18 kts | 78° |
| 2026-05-04 09:02 | -26.14537 | 28.23468 | 5554 ft | 0 kts | 17° |
| 2026-05-04 09:03 | -26.14498 | 28.23481 | 5554 ft | 25 kts | 16° |
| 2026-05-04 09:03 | -26.14092 | 28.23601 | 5551 ft | 98 kts | 14° |
| 2026-05-04 09:03 | -26.13204 | 28.23873 | 5530 ft | 165 kts | 16° |
| 2026-05-04 09:04 | -26.11934 | 28.24282 | 5786 ft | 202 kts | 7° |
| 2026-05-04 09:04 | -26.10577 | 28.24643 | 6758 ft | 194 kts | 7° |
| 2026-05-04 09:04 | -26.09288 | 28.25024 | 7722 ft | 194 kts | 8° |
| 2026-05-04 09:04 | -26.07977 | 28.25394 | 8499 ft | 191 kts | 6° |
| 2026-05-04 09:05 | -26.06698 | 28.25718 | 8987 ft | 188 kts | 359° |
| 2026-05-04 09:05 | -26.05383 | 28.25578 | 9185 ft | 194 kts | 334° |
| 2026-05-04 09:05 | -26.04104 | 28.24959 | 9378 ft | 208 kts | 325° |
| 2026-05-04 09:05 | -26.02836 | 28.24083 | 9544 ft | 221 kts | 320° |
| 2026-05-04 09:06 | -26.01546 | 28.23048 | 9726 ft | 235 kts | 317° |
| 2026-05-04 09:07 | -25.90348 | 28.14252 | 11487 ft | 320 kts | 322° |
| 2026-05-04 09:08 | -25.88465 | 28.12837 | 11667 ft | 332 kts | 322° |
| 2026-05-04 09:08 | -25.86512 | 28.11374 | 11781 ft | 344 kts | 323° |
| 2026-05-04 09:08 | -25.84494 | 28.09876 | 11956 ft | 354 kts | 323° |
| 2026-05-04 09:08 | -25.82418 | 28.08342 | 12167 ft | 361 kts | 323° |
| 2026-05-04 09:09 | -25.80312 | 28.06794 | 12521 ft | 365 kts | 323° |
| 2026-05-04 09:09 | -25.78194 | 28.05235 | 12921 ft | 366 kts | 323° |
| 2026-05-04 09:09 | -25.76092 | 28.03681 | 13244 ft | 369 kts | 323° |
| 2026-05-04 09:09 | -25.73947 | 28.02092 | 13590 ft | 371 kts | 323° |
| 2026-05-04 09:10 | -25.71802 | 28.00499 | 13986 ft | 372 kts | 323° |
| 2026-05-04 09:10 | -25.69640 | 27.98890 | 14301 ft | 373 kts | 323° |
| 2026-05-04 09:10 | -25.67479 | 27.97280 | 14594 ft | 375 kts | 323° |
| 2026-05-04 09:10 | -25.65311 | 27.95665 | 14957 ft | 375 kts | 323° |
| 2026-05-04 09:11 | -25.63136 | 27.94046 | 15305 ft | 377 kts | 323° |
| 2026-05-04 09:11 | -25.60952 | 27.92420 | 15635 ft | 378 kts | 323° |
| 2026-05-04 09:11 | -25.58773 | 27.90846 | 15922 ft | 380 kts | 327° |
| 2026-05-04 09:11 | -25.56363 | 27.89621 | 16235 ft | 383 kts | 338° |
| 2026-05-04 09:12 | -25.53764 | 27.88961 | 16597 ft | 385 kts | 347° |
| 2026-05-04 09:12 | -25.51103 | 27.88592 | 16948 ft | 386 kts | 351° |
| 2026-05-04 09:14 | -25.32082 | 27.87449 | 18996 ft | 396 kts | 353° |
| 2026-05-04 09:14 | -25.29323 | 27.87271 | 19220 ft | 398 kts | 353° |
| 2026-05-04 09:14 | -25.26584 | 27.87093 | 19449 ft | 400 kts | 352° |
| 2026-05-04 09:14 | -25.23802 | 27.86912 | 19658 ft | 402 kts | 352° |
| 2026-05-04 09:15 | -25.21000 | 27.86729 | 19847 ft | 404 kts | 352° |
| 2026-05-04 09:15 | -25.18180 | 27.86546 | 20090 ft | 406 kts | 352° |
| 2026-05-04 09:15 | -25.15354 | 27.86363 | 20325 ft | 407 kts | 352° |
| 2026-05-04 09:15 | -25.12518 | 27.86180 | 20540 ft | 409 kts | 352° |
| 2026-05-04 09:17 | -24.89436 | 27.84694 | 22196 ft | 421 kts | 352° |
| 2026-05-04 09:18 | -24.86501 | 27.84506 | 22410 ft | 423 kts | 352° |
| 2026-05-04 09:18 | -24.83568 | 27.84259 | 22601 ft | 423 kts | 349° |
| 2026-05-04 09:18 | -24.80642 | 27.83882 | 22794 ft | 424 kts | 348° |
| 2026-05-04 09:18 | -24.77708 | 27.83445 | 22984 ft | 425 kts | 347° |
| 2026-05-04 09:19 | -24.74772 | 27.82996 | 23182 ft | 427 kts | 347° |
| 2026-05-04 09:19 | -24.71828 | 27.82556 | 23388 ft | 428 kts | 347° |
| 2026-05-04 09:19 | -24.68906 | 27.82133 | 23560 ft | 429 kts | 348° |
| 2026-05-04 09:19 | -24.65934 | 27.81717 | 23728 ft | 431 kts | 348° |
| 2026-05-04 09:20 | -24.62956 | 27.81313 | 23905 ft | 433 kts | 348° |
| 2026-05-04 09:20 | -24.59957 | 27.80910 | 24039 ft | 434 kts | 348° |
| 2026-05-04 09:20 | -24.56959 | 27.80510 | 24237 ft | 435 kts | 348° |
| 2026-05-04 09:20 | -24.53944 | 27.80107 | 24364 ft | 436 kts | 348° |
| 2026-05-04 09:21 | -24.50924 | 27.79704 | 24511 ft | 438 kts | 348° |
| 2026-05-04 09:21 | -24.47894 | 27.79300 | 24647 ft | 439 kts | 348° |
| 2026-05-04 09:21 | -24.44857 | 27.78893 | 24801 ft | 440 kts | 348° |
| 2026-05-04 09:21 | -24.41806 | 27.78485 | 24936 ft | 441 kts | 348° |
| 2026-05-04 09:22 | -24.38745 | 27.78075 | 25079 ft | 443 kts | 348° |
| 2026-05-04 09:22 | -24.35682 | 27.77665 | 25193 ft | 444 kts | 348° |
| 2026-05-04 09:22 | -24.32642 | 27.77260 | 25351 ft | 445 kts | 348° |
| 2026-05-04 09:22 | -24.29562 | 27.76848 | 25484 ft | 446 kts | 348° |
| 2026-05-04 09:23 | -24.26476 | 27.76436 | 25612 ft | 447 kts | 348° |
| 2026-05-04 09:23 | -24.23381 | 27.76023 | 25760 ft | 448 kts | 348° |
| 2026-05-04 09:23 | -24.20279 | 27.75608 | 25896 ft | 449 kts | 348° |
| 2026-05-04 09:23 | -24.17163 | 27.75192 | 26038 ft | 451 kts | 348° |
| 2026-05-04 09:25 | -23.95161 | 27.72259 | 26880 ft | 460 kts | 348° |
| 2026-05-04 09:25 | -23.91982 | 27.71834 | 27023 ft | 461 kts | 348° |
| 2026-05-04 09:26 | -23.88796 | 27.71411 | 27145 ft | 462 kts | 348° |
| 2026-05-04 09:26 | -23.85595 | 27.70987 | 27237 ft | 464 kts | 348° |
| 2026-05-04 09:26 | -23.82382 | 27.70562 | 27354 ft | 466 kts | 348° |
| 2026-05-04 09:26 | -23.79167 | 27.70137 | 27484 ft | 467 kts | 348° |
| 2026-05-04 09:27 | -23.75939 | 27.69710 | 27626 ft | 467 kts | 348° |
| 2026-05-04 09:27 | -23.72708 | 27.69283 | 27767 ft | 469 kts | 348° |
| 2026-05-04 09:27 | -23.69465 | 27.68854 | 27873 ft | 470 kts | 348° |
| 2026-05-04 09:27 | -23.66213 | 27.68424 | 28013 ft | 471 kts | 348° |
| 2026-05-04 09:28 | -23.62954 | 27.67993 | 28136 ft | 472 kts | 348° |
| 2026-05-04 09:28 | -23.59682 | 27.67560 | 28240 ft | 473 kts | 348° |
| 2026-05-04 09:28 | -23.56402 | 27.67126 | 28355 ft | 475 kts | 348° |
| 2026-05-04 09:28 | -23.53120 | 27.66692 | 28467 ft | 476 kts | 348° |
| 2026-05-04 09:29 | -23.49830 | 27.66258 | 28587 ft | 477 kts | 348° |
| 2026-05-04 09:29 | -23.46567 | 27.65828 | 28715 ft | 478 kts | 348° |
| 2026-05-04 09:29 | -23.43253 | 27.65391 | 28830 ft | 479 kts | 348° |
| 2026-05-04 09:29 | -23.39942 | 27.64954 | 28948 ft | 480 kts | 348° |
| 2026-05-04 09:30 | -23.36619 | 27.64517 | 29069 ft | 481 kts | 348° |
| 2026-05-04 09:30 | -23.33287 | 27.64078 | 29180 ft | 482 kts | 348° |
| 2026-05-04 09:30 | -23.27727 | 27.63346 | 29336 ft | 485 kts | 348° |
| 2026-05-04 09:31 | -23.24368 | 27.62904 | 29453 ft | 486 kts | 348° |
| 2026-05-04 09:31 | -23.21007 | 27.62463 | 29560 ft | 487 kts | 348° |
| 2026-05-04 09:31 | -23.14240 | 27.61718 | 29796 ft | 490 kts | 349° |
| 2026-05-04 09:32 | -23.10836 | 27.61402 | 29906 ft | 491 kts | 349° |
| 2026-05-04 09:32 | -23.07420 | 27.61090 | 30012 ft | 492 kts | 349° |
| 2026-05-04 09:34 | -22.83394 | 27.58762 | 30709 ft | 498 kts | 349° |
| 2026-05-04 09:34 | -22.79937 | 27.58421 | 30816 ft | 499 kts | 349° |
| 2026-05-04 09:34 | -22.73005 | 27.57738 | 31021 ft | 501 kts | 349° |
| 2026-05-04 09:35 | -22.66047 | 27.57053 | 31213 ft | 502 kts | 349° |
| 2026-05-04 09:35 | -22.62566 | 27.56711 | 31323 ft | 503 kts | 349° |
| 2026-05-04 09:35 | -22.59078 | 27.56368 | 31414 ft | 504 kts | 349° |
| 2026-05-04 09:37 | -22.34550 | 27.53966 | 31976 ft | 508 kts | 349° |
| 2026-05-04 09:37 | -22.31018 | 27.53621 | 32074 ft | 509 kts | 349° |
| 2026-05-04 09:38 | -22.27492 | 27.53277 | 32191 ft | 508 kts | 349° |
| 2026-05-04 09:38 | -22.23974 | 27.52933 | 32323 ft | 507 kts | 349° |
| 2026-05-04 09:38 | -22.20455 | 27.52589 | 32437 ft | 507 kts | 349° |
| 2026-05-04 09:38 | -22.16939 | 27.52244 | 32524 ft | 507 kts | 349° |
| 2026-05-04 09:39 | -22.09900 | 27.51554 | 32735 ft | 508 kts | 349° |
| 2026-05-04 09:39 | -22.06382 | 27.51210 | 32864 ft | 507 kts | 349° |
| 2026-05-04 09:39 | -22.02917 | 27.50872 | 32994 ft | 507 kts | 349° |
| 2026-05-04 09:40 | -21.99403 | 27.50529 | 33120 ft | 506 kts | 348° |
| 2026-05-04 09:40 | -21.95891 | 27.50186 | 33257 ft | 506 kts | 348° |
| 2026-05-04 09:40 | -21.92376 | 27.49911 | 33366 ft | 507 kts | 351° |
| 2026-05-04 09:40 | -21.88844 | 27.49755 | 33501 ft | 508 kts | 352° |
| 2026-05-04 09:41 | -21.85313 | 27.49650 | 33625 ft | 508 kts | 352° |
| 2026-05-04 09:42 | -21.60643 | 27.48782 | 34716 ft | 503 kts | 352° |
| 2026-05-04 09:43 | -21.57143 | 27.48639 | 34875 ft | 503 kts | 351° |
| 2026-05-04 09:43 | -21.53650 | 27.48496 | 35051 ft | 502 kts | 351° |
| 2026-05-04 09:43 | -21.50167 | 27.48355 | 35238 ft | 501 kts | 351° |
| 2026-05-04 09:43 | -21.46728 | 27.48216 | 35424 ft | 499 kts | 351° |
| 2026-05-04 09:44 | -21.43261 | 27.48078 | 35592 ft | 498 kts | 351° |
| 2026-05-04 09:44 | -21.39793 | 27.47940 | 35773 ft | 498 kts | 351° |
| 2026-05-04 09:44 | -21.36333 | 27.47803 | 35954 ft | 497 kts | 351° |
| 2026-05-04 09:46 | -21.12499 | 27.46019 | 37143 ft | 481 kts | 341° |
| 2026-05-04 09:46 | -21.05977 | 27.44331 | 37146 ft | 482 kts | 339° |
| 2026-05-04 09:47 | -20.99466 | 27.42552 | 37153 ft | 483 kts | 339° |
| 2026-05-04 09:49 | -20.73345 | 27.35559 | 37160 ft | 484 kts | 340° |
| 2026-05-04 09:51 | -20.50444 | 27.29476 | 37167 ft | 485 kts | 340° |
| 2026-05-04 09:51 | -20.43883 | 27.27736 | 37163 ft | 486 kts | 341° |
| 2026-05-04 09:52 | -20.37305 | 27.25993 | 37171 ft | 487 kts | 341° |
| 2026-05-04 09:52 | -20.30728 | 27.24253 | 37166 ft | 487 kts | 341° |
| 2026-05-04 09:53 | -20.24156 | 27.22515 | 37157 ft | 487 kts | 341° |
| 2026-05-04 09:53 | -20.17605 | 27.20784 | 37157 ft | 487 kts | 341° |
| 2026-05-04 09:54 | -20.11017 | 27.19045 | 37168 ft | 488 kts | 341° |
| 2026-05-04 09:54 | -20.04410 | 27.17307 | 37173 ft | 488 kts | 341° |
| 2026-05-04 09:55 | -19.97811 | 27.15575 | 37173 ft | 487 kts | 341° |
| 2026-05-04 09:55 | -19.91235 | 27.13847 | 37175 ft | 486 kts | 341° |
| 2026-05-04 09:56 | -19.84663 | 27.12111 | 37175 ft | 486 kts | 341° |
| 2026-05-04 09:56 | -19.78134 | 27.10390 | 37174 ft | 486 kts | 341° |
| 2026-05-04 09:57 | -19.71564 | 27.08662 | 37173 ft | 486 kts | 341° |
| 2026-05-04 09:57 | -19.64983 | 27.06932 | 37169 ft | 486 kts | 341° |
| 2026-05-04 09:58 | -19.58407 | 27.05205 | 37176 ft | 487 kts | 341° |
| 2026-05-04 09:58 | -19.51818 | 27.03477 | 37181 ft | 488 kts | 341° |
| 2026-05-04 10:00 | -19.25433 | 26.96577 | 37191 ft | 489 kts | 341° |
| 2026-05-04 10:04 | -18.79098 | 26.84518 | 37201 ft | 491 kts | 341° |
| 2026-05-04 10:04 | -18.72465 | 26.82797 | 37206 ft | 491 kts | 341° |
| 2026-05-04 10:05 | -18.65817 | 26.81075 | 37207 ft | 492 kts | 341° |
| 2026-05-04 10:05 | -18.59174 | 26.79354 | 37205 ft | 492 kts | 341° |
| 2026-05-04 10:06 | -18.52524 | 26.77637 | 37196 ft | 492 kts | 341° |
| 2026-05-04 10:06 | -18.45880 | 26.75916 | 37191 ft | 492 kts | 341° |
| 2026-05-04 10:08 | -18.22630 | 26.69911 | 37175 ft | 492 kts | 341° |
| 2026-05-04 10:08 | -18.15977 | 26.68196 | 37159 ft | 492 kts | 341° |
| 2026-05-04 10:09 | -18.09320 | 26.66480 | 37159 ft | 492 kts | 341° |
| 2026-05-04 10:09 | -18.02658 | 26.64769 | 37154 ft | 493 kts | 341° |
| 2026-05-04 10:10 | -17.96002 | 26.63058 | 37149 ft | 493 kts | 341° |
| 2026-05-04 10:10 | -17.89344 | 26.61345 | 37151 ft | 492 kts | 341° |
| 2026-05-04 10:11 | -17.82679 | 26.59634 | 37143 ft | 492 kts | 341° |
| 2026-05-04 10:11 | -17.76017 | 26.57924 | 37146 ft | 492 kts | 341° |
| 2026-05-04 10:12 | -17.69401 | 26.56225 | 37148 ft | 492 kts | 341° |
| 2026-05-04 10:12 | -17.62744 | 26.54519 | 37146 ft | 493 kts | 342° |
| 2026-05-04 10:13 | -17.56071 | 26.52815 | 37145 ft | 493 kts | 341° |
| 2026-05-04 10:13 | -17.49406 | 26.51110 | 37146 ft | 493 kts | 341° |
| 2026-05-04 10:14 | -17.42744 | 26.49408 | 37143 ft | 493 kts | 341° |
| 2026-05-04 10:16 | -17.16128 | 26.42550 | 37129 ft | 493 kts | 341° |
| 2026-05-04 10:16 | -17.09480 | 26.40734 | 37128 ft | 493 kts | 341° |
| 2026-05-04 10:17 | -17.03965 | 26.39232 | 37124 ft | 493 kts | 341° |
| 2026-05-04 10:19 | -16.77358 | 26.32073 | 37102 ft | 493 kts | 341° |
| 2026-05-04 10:19 | -16.70750 | 26.30284 | 37102 ft | 493 kts | 341° |
| 2026-05-04 10:20 | -16.64103 | 26.28474 | 37091 ft | 493 kts | 340° |
| 2026-05-04 10:20 | -16.57465 | 26.26671 | 37092 ft | 492 kts | 340° |
| 2026-05-04 10:21 | -16.50831 | 26.24874 | 37079 ft | 492 kts | 341° |
| 2026-05-04 10:21 | -16.44233 | 26.23087 | 37077 ft | 493 kts | 341° |
| 2026-05-04 10:22 | -16.34257 | 26.20390 | 37067 ft | 493 kts | 341° |
| 2026-05-04 10:23 | -16.27614 | 26.18595 | 37067 ft | 492 kts | 341° |
| 2026-05-04 10:25 | -16.01146 | 26.11458 | 37048 ft | 492 kts | 341° |
| 2026-05-04 10:25 | -15.94530 | 26.09677 | 37048 ft | 491 kts | 341° |
| 2026-05-04 10:26 | -15.87910 | 26.07896 | 37047 ft | 491 kts | 341° |
| 2026-05-04 10:26 | -15.81330 | 26.06127 | 37048 ft | 491 kts | 341° |
| 2026-05-04 10:27 | -15.74706 | 26.04347 | 37047 ft | 491 kts | 341° |
| 2026-05-04 10:27 | -15.68085 | 26.02569 | 37046 ft | 491 kts | 341° |
| 2026-05-04 10:28 | -15.61467 | 26.00794 | 37042 ft | 491 kts | 342° |
| 2026-05-04 10:28 | -15.54847 | 25.99018 | 37045 ft | 491 kts | 341° |
| 2026-05-04 10:29 | -15.48269 | 25.97255 | 37040 ft | 491 kts | 341° |
| 2026-05-04 10:29 | -15.41658 | 25.95488 | 37042 ft | 491 kts | 341° |
| 2026-05-04 10:30 | -15.35045 | 25.93715 | 37038 ft | 490 kts | 342° |
| 2026-05-04 10:30 | -15.28438 | 25.91950 | 37036 ft | 489 kts | 342° |
| 2026-05-04 10:31 | -15.21838 | 25.90194 | 37039 ft | 490 kts | 341° |
| 2026-05-04 10:32 | -14.98773 | 25.84053 | 37028 ft | 489 kts | 342° |
| 2026-05-04 10:33 | -14.92178 | 25.82299 | 37026 ft | 489 kts | 341° |
| 2026-05-04 10:33 | -14.85574 | 25.80548 | 37025 ft | 489 kts | 341° |
| 2026-05-04 10:34 | -14.78988 | 25.78798 | 37023 ft | 489 kts | 342° |
| 2026-05-04 10:34 | -14.72404 | 25.77047 | 37022 ft | 487 kts | 342° |
| 2026-05-04 10:35 | -14.65865 | 25.75314 | 37021 ft | 487 kts | 342° |
| 2026-05-04 10:35 | -14.59291 | 25.73572 | 37022 ft | 488 kts | 341° |
| 2026-05-04 10:36 | -14.52723 | 25.71832 | 37018 ft | 488 kts | 341° |
| 2026-05-04 10:36 | -14.46141 | 25.70090 | 37021 ft | 486 kts | 342° |
| 2026-05-04 10:37 | -14.39568 | 25.68355 | 37015 ft | 486 kts | 342° |
| 2026-05-04 10:37 | -14.33046 | 25.66632 | 37021 ft | 487 kts | 341° |
| 2026-05-04 10:39 | -14.10096 | 25.60567 | 37012 ft | 485 kts | 342° |
| 2026-05-04 10:40 | -14.03543 | 25.58841 | 37013 ft | 485 kts | 342° |
| 2026-05-04 10:40 | -13.96998 | 25.57115 | 37011 ft | 486 kts | 342° |
| 2026-05-04 10:41 | -13.90501 | 25.55403 | 37015 ft | 486 kts | 342° |
| 2026-05-04 10:41 | -13.83950 | 25.53678 | 37013 ft | 485 kts | 342° |
| 2026-05-04 10:42 | -13.77399 | 25.51955 | 37011 ft | 485 kts | 342° |
| 2026-05-04 10:42 | -13.70844 | 25.50231 | 37010 ft | 486 kts | 342° |
| 2026-05-04 10:43 | -13.64298 | 25.48512 | 37011 ft | 486 kts | 342° |
| 2026-05-04 10:45 | -13.38211 | 25.41667 | 37011 ft | 482 kts | 343° |
| 2026-05-04 10:45 | -13.31702 | 25.39963 | 37012 ft | 482 kts | 343° |
| 2026-05-04 10:46 | -13.25187 | 25.38259 | 37012 ft | 483 kts | 343° |
| 2026-05-04 10:46 | -13.18673 | 25.36555 | 37015 ft | 482 kts | 343° |
| 2026-05-04 10:47 | -13.12166 | 25.34853 | 37011 ft | 482 kts | 343° |
| 2026-05-04 10:47 | -13.05693 | 25.33164 | 37010 ft | 482 kts | 343° |
| 2026-05-04 10:49 | -12.79664 | 25.26372 | 36999 ft | 483 kts | 343° |
| 2026-05-04 10:50 | -12.73153 | 25.24675 | 36996 ft | 483 kts | 343° |
| 2026-05-04 10:52 | -12.47139 | 25.17914 | 36994 ft | 483 kts | 343° |
| 2026-05-04 10:52 | -12.40627 | 25.16219 | 36990 ft | 482 kts | 343° |
| 2026-05-04 10:54 | -12.14586 | 25.09462 | 37004 ft | 481 kts | 343° |
| 2026-05-04 10:56 | -11.88644 | 25.02741 | 37009 ft | 481 kts | 344° |
| 2026-05-04 10:57 | -11.82158 | 25.01067 | 37012 ft | 481 kts | 344° |
| 2026-05-04 10:57 | -11.75706 | 24.99402 | 37012 ft | 482 kts | 343° |
| 2026-05-04 10:58 | -11.69200 | 24.97719 | 37009 ft | 482 kts | 343° |
| 2026-05-04 10:58 | -11.62686 | 24.96035 | 37010 ft | 482 kts | 343° |
| 2026-05-04 10:59 | -11.56182 | 24.94355 | 37010 ft | 482 kts | 344° |
| 2026-05-04 10:59 | -11.49674 | 24.92673 | 37010 ft | 482 kts | 344° |
| 2026-05-04 11:00 | -11.43170 | 24.90995 | 37007 ft | 482 kts | 344° |
| 2026-05-04 11:02 | -11.17165 | 24.84285 | 36990 ft | 482 kts | 344° |
| 2026-05-04 11:05 | -10.69416 | 24.72002 | 36957 ft | 483 kts | 344° |
| 2026-05-04 11:06 | -10.62891 | 24.70324 | 36958 ft | 483 kts | 344° |
| 2026-05-04 11:06 | -10.56415 | 24.68664 | 36949 ft | 483 kts | 344° |
| 2026-05-04 11:10 | -10.10723 | 24.56960 | 36942 ft | 484 kts | 344° |
| 2026-05-04 11:12 | -9.84605 | 24.50289 | 36938 ft | 484 kts | 344° |
| 2026-05-04 11:12 | -9.78069 | 24.48621 | 36936 ft | 484 kts | 344° |
| 2026-05-04 11:13 | -9.71533 | 24.46956 | 36936 ft | 484 kts | 344° |
| 2026-05-04 11:13 | -9.64996 | 24.45291 | 36936 ft | 484 kts | 344° |
| 2026-05-04 11:14 | -9.58453 | 24.43624 | 36928 ft | 484 kts | 344° |
| 2026-05-04 11:16 | -9.32345 | 24.36983 | 36936 ft | 484 kts | 344° |
| 2026-05-04 11:16 | -9.25798 | 24.35319 | 36934 ft | 485 kts | 344° |
| 2026-05-04 11:17 | -9.19247 | 24.33653 | 36935 ft | 486 kts | 344° |
| 2026-05-04 11:19 | -8.93128 | 24.26612 | 36936 ft | 486 kts | 343° |
| 2026-05-04 11:19 | -8.86584 | 24.24850 | 36933 ft | 487 kts | 343° |
| 2026-05-04 11:20 | -8.80042 | 24.23089 | 36934 ft | 487 kts | 343° |
| 2026-05-04 11:20 | -8.73497 | 24.21330 | 36934 ft | 486 kts | 343° |
| 2026-05-04 11:22 | -8.47345 | 24.14306 | 36937 ft | 487 kts | 343° |
| 2026-05-04 11:23 | -8.40801 | 24.12550 | 36942 ft | 487 kts | 343° |